.
WxDataArchive / Data Records for 2010-08-06
2010-08-05 August 2010 2010-08-07

Data Records for Friday, 06 August 2010

Time	Temp	Chill	HIndex	Humid	Dewpt	 Wind 	HiWind	WindDir	Rain 	Barom 
-----	----	-----	------	-----	-----	------	------	-------	-----	----- 
00:00	67.1	67.1	67.1	79	60.4	0	0	---	0.00	29.843 
00:05	66.9	66.9	66.9	80	60.5	0	0	---	0.00	29.843 
00:10	66.8	66.8	66.8	81	60.8	0	0	---	0.00	29.843 
00:15	66.6	66.6	66.6	81	60.6	0	0	---	0.00	29.838 
00:20	66.6	66.6	66.6	81	60.6	0	0	---	0.00	29.838 
00:25	66.4	66.4	66.4	81	60.4	0	0	---	0.00	29.838 
00:30	66.3	66.3	66.3	82	60.6	0	0	---	0.00	29.845 
00:35	66.3	66.3	66.3	82	60.6	0	0	---	0.00	29.845 
00:40	66.1	66.1	66.1	83	60.8	0	0	---	0.00	29.845 
00:45	66.0	66.0	66.0	83	60.7	0	0	---	0.00	29.846 
00:50	66.0	66.0	66.0	83	60.7	0	0	---	0.00	29.846 
00:55	65.8	65.8	65.8	83	60.5	0	0	---	0.00	29.846 
01:00	65.8	65.8	65.8	84	60.8	0	0	---	0.00	29.850 
01:05	65.6	65.6	65.6	84	60.6	0	0	---	0.00	29.850 
01:10	65.6	65.6	65.6	84	60.6	0	0	---	0.00	29.850 
01:15	65.6	65.6	65.6	85	61.0	0	0	---	0.00	29.846 
01:20	65.6	65.6	65.6	85	61.0	0	0	---	0.00	29.846 
01:25	65.6	65.6	65.6	85	61.0	0	0	---	0.00	29.846 
01:30	65.6	65.6	65.6	85	61.0	0	0	---	0.00	29.846 
01:35	66.0	66.0	66.0	85	61.4	0	0	---	0.00	29.846 
01:40	66.3	66.3	66.3	84	61.3	0	0	---	0.00	29.846 
01:45	66.6	66.6	66.6	84	61.6	0	0	---	0.00	29.847 
01:50	66.8	66.8	66.8	83	61.5	0	0	---	0.00	29.847 
01:55	66.9	66.9	66.9	83	61.6	0	0	---	0.00	29.847 
02:00	67.1	67.1	67.1	82	61.4	0	0	---	0.00	29.843 
02:05	67.3	67.3	67.3	82	61.6	0	0	---	0.00	29.843 
02:10	67.3	67.3	67.3	82	61.6	0	0	---	0.00	29.843 
02:15	67.3	67.3	67.3	82	61.6	0	0	---	0.00	29.841 
02:20	67.3	67.3	67.3	82	61.6	0	0	---	0.00	29.841 
02:25	67.1	67.1	67.1	82	61.4	0	0	---	0.00	29.841 
02:30	66.9	66.9	66.9	83	61.6	0	0	---	0.00	29.840 
02:35	66.9	66.9	66.9	83	61.6	0	1	292	0.00	29.840 
02:40	66.9	66.9	66.9	83	61.6	0	0	---	0.00	29.840 
02:45	66.8	66.8	66.8	83	61.5	0	0	---	0.00	29.839 
02:50	66.8	66.8	66.8	84	61.8	0	1	292	0.00	29.839 
02:55	66.8	66.8	66.8	84	61.8	0	0	---	0.00	29.839 
03:00	66.6	66.6	66.6	84	61.6	0	0	---	0.00	29.836 
03:05	66.6	66.6	66.6	84	61.6	0	1	292	0.00	29.836 
03:10	66.6	66.6	66.6	84	61.6	0	1	292	0.00	29.836 
03:15	66.4	66.4	66.4	84	61.4	0	1	292	0.00	29.838 
03:20	66.4	66.4	66.4	84	61.4	0	1	292	0.00	29.838 
03:25	66.3	66.3	66.3	85	61.6	0	1	292	0.00	29.838 
03:30	66.3	66.3	66.3	85	61.6	0	0	---	0.00	29.840 
03:35	66.1	66.1	66.1	85	61.5	0	1	292	0.00	29.840 
03:40	66.0	66.0	66.0	85	61.4	0	0	---	0.00	29.840 
03:45	65.8	65.8	65.8	86	61.5	0	0	---	0.00	29.840 
03:50	65.6	65.6	65.6	86	61.3	0	0	---	0.00	29.840 
03:55	65.3	65.3	65.3	86	61.0	0	0	---	0.00	29.840 
04:00	65.2	65.2	65.2	87	61.2	0	0	---	0.00	29.838 
04:05	65.0	65.0	65.0	87	61.0	0	0	---	0.00	29.838 
04:10	64.8	64.8	64.8	88	61.2	0	0	---	0.00	29.838 
04:15	64.8	64.8	64.8	88	61.2	0	0	---	0.00	29.845 
04:20	64.7	64.7	64.7	88	61.1	0	0	---	0.00	29.845 
04:25	64.7	64.7	64.7	88	61.1	0	0	---	0.00	29.845 
04:30	64.5	64.5	64.5	89	61.2	0	0	---	0.00	29.849 
04:35	64.5	64.5	64.5	89	61.2	0	0	---	0.00	29.849 
04:40	64.5	64.5	64.5	89	61.2	0	0	---	0.00	29.849 
04:45	64.7	64.7	64.7	89	61.4	0	0	---	0.00	29.850 
04:50	64.7	64.7	64.7	89	61.4	0	1	292	0.00	29.850 
04:55	64.7	64.7	64.7	89	61.4	0	1	292	0.00	29.850 
05:00	64.7	64.7	64.7	88	61.1	0	0	---	0.00	29.852 
05:05	64.7	64.7	64.7	88	61.1	0	1	292	0.00	29.852 
05:10	64.7	64.7	64.7	88	61.1	0	0	---	0.00	29.852 
05:15	64.7	64.7	64.7	88	61.1	0	0	---	0.00	29.855 
05:20	64.7	64.7	64.7	88	61.1	0	0	---	0.00	29.855 
05:25	64.5	64.5	64.5	88	60.9	0	0	---	0.00	29.855 
05:30	64.5	64.5	64.5	88	60.9	0	0	---	0.00	29.857 
05:35	64.3	64.3	64.3	88	60.7	0	0	---	0.00	29.857 
05:40	64.2	64.2	64.2	88	60.6	0	0	---	0.00	29.857 
05:45	64.0	64.0	64.0	89	60.7	0	0	---	0.00	29.861 
05:50	63.9	63.9	63.9	89	60.6	0	0	---	0.00	29.861 
05:55	63.7	63.7	63.7	89	60.4	0	0	---	0.00	29.861 
06:00	63.7	63.7	63.7	89	60.4	0	0	---	0.00	29.865 
06:05	63.5	63.5	63.5	90	60.5	0	0	---	0.00	29.865 
06:10	63.4	63.4	63.4	90	60.4	0	0	---	0.00	29.865 
06:15	63.4	63.4	63.4	90	60.4	0	0	---	0.00	29.864 
06:20	63.2	63.2	63.2	90	60.2	0	0	---	0.00	29.864 
06:25	63.2	63.2	63.2	90	60.2	0	0	---	0.00	29.864 
06:30	63.2	63.2	63.2	90	60.2	0	0	---	0.00	29.870 
06:35	63.2	63.2	63.2	90	60.2	0	0	---	0.00	29.870 
06:40	63.4	63.4	63.4	90	60.4	0	1	292	0.00	29.870 
06:45	63.5	63.5	63.5	90	60.5	0	0	---	0.00	29.868 
06:50	63.5	63.5	63.5	90	60.5	0	0	---	0.00	29.868 
06:55	63.7	63.7	63.7	89	60.4	0	1	292	0.00	29.868 
07:00	63.9	63.9	63.9	89	60.6	0	0	---	0.00	29.871 
07:05	63.9	63.9	63.9	89	60.6	0	1	292	0.00	29.871 
07:10	64.0	64.0	64.0	88	60.4	0	1	292	0.00	29.871 
07:15	64.0	64.0	64.0	88	60.4	0	1	292	0.00	29.875 
07:20	64.2	64.2	64.2	88	60.6	0	1	292	0.00	29.875 
07:25	64.3	64.3	64.3	87	60.3	0	1	292	0.00	29.875 
07:30	64.5	64.5	64.5	87	60.5	0	1	292	0.00	29.875 
07:35	64.7	64.7	64.7	87	60.7	0	1	292	0.00	29.875 
07:40	64.8	64.8	64.8	86	60.5	0	2	292	0.00	29.875 
07:45	65.0	65.0	65.0	85	60.4	0	2	292	0.00	29.885 
07:50	65.3	65.3	65.3	84	60.3	0	2	292	0.00	29.885 
07:55	65.6	65.6	65.6	84	60.6	0	1	292	0.00	29.885 
08:00	65.8	65.8	65.8	83	60.5	0	1	292	0.00	29.889 
08:05	66.1	66.1	66.1	82	60.4	0	1	292	0.00	29.889 
08:10	66.4	66.4	66.4	81	60.4	0	2	292	0.00	29.889 
08:15	66.9	66.9	66.9	80	60.5	1	4	292	0.00	29.894 
08:20	67.3	67.3	67.3	80	60.9	1	2	292	0.00	29.894 
08:25	67.6	67.6	67.6	79	60.8	0	2	292	0.00	29.894 
08:30	67.8	67.8	67.8	78	60.7	1	3	292	0.00	29.904 
08:35	68.1	68.1	68.1	77	60.6	0	2	292	0.00	29.904 
08:40	68.4	68.4	68.4	77	60.9	0	2	292	0.00	29.904 
08:45	68.8	68.8	68.8	76	60.9	0	3	292	0.00	29.904 
08:50	69.1	69.1	69.1	74	60.5	1	3	292	0.00	29.904 
08:55	69.4	69.4	69.4	74	60.7	0	3	292	0.00	29.904 
09:00	69.6	69.6	69.6	73	60.6	0	2	292	0.00	29.907 
09:05	70.1	70.1	70.1	72	60.6	0	1	292	0.00	29.907 
09:10	70.4	70.4	70.4	71	60.5	1	2	292	0.00	29.907 
09:15	70.6	70.6	70.6	71	60.7	1	2	315	0.00	29.909 
09:20	71.1	71.1	71.1	70	60.8	0	1	315	0.00	29.909 
09:25	71.3	71.3	71.3	69	60.6	1	5	270	0.00	29.909 
09:30	71.5	71.5	71.5	69	60.8	1	3	270	0.00	29.915 
09:35	71.6	71.6	71.6	69	60.9	1	3	270	0.00	29.915 
09:40	72.0	72.0	72.0	68	60.8	1	3	292	0.00	29.915 
09:45	72.3	72.3	72.3	69	61.5	1	3	292	0.00	29.918 
09:50	72.8	72.8	72.8	68	61.6	0	1	292	0.00	29.918 
09:55	73.2	73.2	73.2	66	61.1	1	2	292	0.00	29.918 
10:00	73.5	73.5	73.5	64	60.6	1	3	292	0.00	29.917 
10:05	73.9	73.9	73.9	62	60.0	1	3	292	0.00	29.917 
10:10	74.2	74.2	74.2	63	60.8	0	2	292	0.00	29.917 
10:15	74.6	74.6	74.6	61	60.2	1	4	292	0.00	29.920 
10:20	74.6	74.6	74.6	57	58.3	1	3	292	0.00	29.920 
10:25	74.7	74.7	74.7	58	58.9	1	3	292	0.00	29.920 
10:30	75.1	75.1	77.5	57	58.8	1	5	292	0.00	29.921 
10:35	75.4	75.4	77.6	59	60.1	1	3	270	0.00	29.921 
10:40	75.8	75.8	77.9	56	59.0	0	2	270	0.00	29.921 
10:45	75.8	75.8	78.0	55	58.5	1	3	292	0.00	29.921 
10:50	76.1	76.1	78.1	56	59.2	0	1	292	0.00	29.921 
10:55	76.3	76.3	78.3	54	58.4	1	3	292	0.00	29.921 
11:00	76.5	76.5	78.4	54	58.6	1	3	292	0.00	29.925 
11:05	76.3	76.3	78.2	52	57.4	1	4	292	0.00	29.925 
11:10	76.3	76.3	78.2	52	57.4	1	4	292	0.00	29.925 
11:15	76.7	76.7	78.4	51	57.2	1	2	292	0.00	29.928 
11:20	77.0	77.0	78.7	54	59.1	0	2	292	0.00	29.928 
11:25	77.4	77.4	78.9	51	57.8	0	1	292	0.00	29.928 
11:30	77.6	77.6	79.0	50	57.5	1	3	292	0.00	29.934 
11:35	77.6	77.6	78.9	49	56.9	1	5	292	0.00	29.934 
11:40	77.4	77.4	78.8	49	56.7	1	3	315	0.00	29.934 
11:45	77.6	77.6	79.0	51	58.0	0	2	315	0.00	29.936 
11:50	77.7	77.7	79.0	50	57.6	1	3	315	0.00	29.936 
11:55	77.0	77.0	78.5	47	55.2	2	4	292	0.00	29.936 
12:00	76.8	76.8	78.4	48	55.6	1	4	315	0.00	29.938 
12:05	77.6	77.6	79.0	50	57.5	1	3	315	0.00	29.938 
12:10	78.1	78.1	79.2	47	56.2	1	3	315	0.00	29.938 
12:15	78.3	78.3	79.4	49	57.5	1	4	292	0.00	29.938 
12:20	78.6	78.6	79.4	46	56.1	1	3	292	0.00	29.938 
12:25	78.8	78.8	79.7	48	57.4	1	3	292	0.00	29.938 
12:30	79.2	79.2	80.0	48	57.8	0	2	292	0.00	29.937 
12:35	79.6	79.6	80.1	46	57.0	1	7	270	0.00	29.937 
12:40	79.2	79.2	79.8	45	56.0	2	5	292	0.00	29.937 
12:45	79.0	79.0	79.6	45	55.8	2	5	292	0.00	29.939 
12:50	79.4	79.4	80.0	46	56.8	0	2	292	0.00	29.939 
12:55	79.6	79.6	80.3	48	58.2	1	3	292	0.00	29.939 
13:00	78.5	78.5	79.3	45	55.4	1	3	315	0.00	29.939 
13:05	78.3	78.3	79.2	46	55.8	0	2	315	0.00	29.939 
13:10	78.8	78.8	79.6	47	56.8	0	1	315	0.00	29.939 
13:15	79.4	79.4	79.9	45	56.2	0	2	315	0.00	29.935 
13:20	79.8	79.8	80.1	44	55.9	1	4	315	0.00	29.935 
13:25	79.4	79.4	80.1	47	57.4	0	2	270	0.00	29.935 
13:30	79.6	79.6	80.0	45	56.4	1	4	270	0.00	29.936 
13:35	78.8	78.8	79.6	46	56.2	1	3	338	0.00	29.936 
13:40	79.0	79.0	79.7	46	56.4	1	4	315	0.00	29.936 
13:45	79.8	79.8	80.4	47	57.8	1	4	292	0.00	29.933 
13:50	79.9	79.9	80.0	42	54.7	2	5	292	0.00	29.933 
13:55	80.1	80.1	80.2	42	54.9	1	4	270	0.00	29.933 
14:00	80.3	80.3	80.5	44	56.4	1	3	270	0.00	29.928 
14:05	79.8	79.8	80.2	45	56.5	2	5	292	0.00	29.928 
14:10	79.9	79.9	80.4	46	57.2	1	3	292	0.00	29.928 
14:15	80.5	80.5	80.5	42	55.3	1	5	292	0.00	29.925 
14:20	80.3	80.3	80.4	43	55.7	1	2	292	0.00	29.925 
14:25	79.8	79.8	80.0	43	55.3	1	6	292	0.00	29.925 
14:30	79.4	79.4	79.8	44	55.6	1	4	292	0.00	29.927 
14:35	79.2	79.2	79.8	45	56.0	1	5	292	0.00	29.927 
14:40	79.0	79.0	79.7	46	56.4	0	2	292	0.00	29.927 
14:45	79.4	79.4	80.1	48	58.0	1	4	292	0.00	29.923 
14:50	80.3	80.3	80.7	46	57.6	1	4	315	0.00	29.923 
14:55	80.1	80.1	80.3	44	56.2	2	6	270	0.00	29.923 
15:00	79.8	79.8	80.0	43	55.3	2	5	270	0.00	29.922 
15:05	79.0	79.0	79.4	42	53.9	2	5	270	0.00	29.922 
15:10	78.5	78.5	79.1	42	53.5	2	5	270	0.00	29.922 
15:15	78.3	78.3	79.2	46	55.8	1	3	270	0.00	29.924 
15:20	78.1	78.1	79.0	45	55.0	2	3	270	0.00	29.924 
15:25	77.9	77.9	79.0	47	56.0	1	3	270	0.00	29.924 
15:30	77.7	77.7	79.0	49	57.0	1	4	315	0.00	29.924 
15:35	77.9	77.9	79.0	47	56.0	1	2	315	0.00	29.924 
15:40	78.6	78.6	79.5	48	57.2	1	4	315	0.00	29.924 
15:45	79.6	79.6	80.3	48	58.2	1	3	270	0.00	29.920 
15:50	79.8	79.8	80.5	48	58.3	1	3	338	0.00	29.920 
15:55	80.1	80.1	80.6	47	58.0	2	3	292	0.00	29.920 
16:00	80.1	80.1	80.7	48	58.6	2	4	292	0.00	29.918 
16:05	79.6	79.6	80.2	47	57.6	2	6	270	0.00	29.918 
16:10	79.2	79.2	80.1	49	58.4	2	5	292	0.00	29.918 
16:15	79.8	79.8	80.5	48	58.3	2	5	292	0.00	29.915 
16:20	79.8	79.8	80.5	48	58.3	2	4	270	0.00	29.915 
16:25	79.8	79.8	80.5	48	58.3	2	5	270	0.00	29.915 
16:30	79.8	79.8	80.5	48	58.3	2	5	292	0.00	29.917 
16:35	79.4	79.4	80.1	48	58.0	2	5	270	0.00	29.917 
16:40	79.4	79.4	80.1	47	57.4	2	5	270	0.00	29.917 
16:45	79.8	79.8	80.5	48	58.3	1	6	315	0.00	29.915 
16:50	79.9	79.9	80.4	47	57.8	2	5	270	0.00	29.915 
16:55	80.3	80.3	80.9	48	58.8	1	4	270	0.00	29.915 
17:00	80.5	80.5	80.6	44	56.6	2	4	292	0.00	29.909 
17:05	80.5	80.5	80.6	43	55.9	2	5	292	0.00	29.909 
17:10	80.7	80.7	81.0	46	58.0	1	2	292	0.00	29.909 
17:15	80.9	80.9	80.9	43	56.3	2	5	292	0.00	29.908 
17:20	80.9	80.9	80.9	43	56.3	3	5	292	0.00	29.908 
17:25	80.7	80.7	80.6	42	55.4	1	6	292	0.00	29.908 
17:30	80.3	80.3	80.2	41	54.4	2	5	292	0.00	29.909 
17:35	79.9	79.9	79.9	41	54.1	3	6	270	0.00	29.909 
17:40	80.1	80.1	80.3	43	55.6	2	4	315	0.00	29.909 
17:45	80.3	80.3	80.1	40	53.8	2	5	270	0.00	29.906 
17:50	80.1	80.1	80.1	41	54.2	2	5	292	0.00	29.906 
17:55	80.1	80.1	80.1	41	54.2	2	4	315	0.00	29.906 
18:00	79.9	79.9	79.9	41	54.1	3	10	270	0.00	29.906 
18:05	79.8	79.8	80.0	43	55.3	1	3	292	0.00	29.906 
18:10	79.6	79.6	80.0	44	55.7	2	6	292	0.00	29.906 
18:15	79.4	79.4	79.8	44	55.6	1	5	315	0.00	29.904 
18:20	79.4	79.4	80.0	46	56.8	1	5	315	0.00	29.904 
18:25	79.0	79.0	79.6	45	55.8	2	5	315	0.00	29.904 
18:30	78.5	78.5	79.4	46	56.0	1	4	315	0.00	29.906 
18:35	78.5	78.5	79.4	47	56.6	2	7	292	0.00	29.906 
18:40	78.6	78.6	79.4	46	56.1	1	4	315	0.00	29.906 
18:45	78.6	78.6	79.4	46	56.1	1	4	315	0.00	29.906 
18:50	78.6	78.6	79.4	45	55.5	2	6	315	0.00	29.906 
18:55	78.5	78.5	79.4	46	56.0	2	7	315	0.00	29.906 
19:00	78.3	78.3	79.2	46	55.8	2	5	292	0.00	29.907 
19:05	78.3	78.3	79.2	46	55.8	1	4	292	0.00	29.907 
19:10	77.9	77.9	79.0	46	55.4	2	5	338	0.00	29.907 
19:15	77.7	77.7	78.9	46	55.2	2	5	315	0.00	29.906 
19:20	77.7	77.7	78.9	46	55.2	2	5	270	0.00	29.906 
19:25	77.7	77.7	78.9	46	55.2	1	5	292	0.00	29.906 
19:30	77.6	77.6	78.9	48	56.3	1	3	292	0.00	29.905 
19:35	77.4	77.4	78.7	47	55.6	1	3	315	0.00	29.905 
19:40	77.2	77.2	78.7	48	56.0	2	4	315	0.00	29.905 
19:45	77.0	77.0	78.5	48	55.8	2	4	292	0.00	29.907 
19:50	76.8	76.8	78.5	49	56.2	1	4	292	0.00	29.907 
19:55	76.7	76.7	78.4	49	56.1	1	6	338	0.00	29.907 
20:00	76.5	76.5	78.3	50	56.5	1	3	315	0.00	29.908 
20:05	76.3	76.3	78.2	50	56.3	0	2	315	0.00	29.908 
20:10	76.1	76.1	78.1	51	56.6	0	1	315	0.00	29.908 
20:15	76.0	76.0	78.1	52	57.1	0	2	315	0.00	29.905 
20:20	75.8	75.8	78.0	52	56.9	0	1	315	0.00	29.905 
20:25	75.4	75.4	77.8	53	57.1	0	1	315	0.00	29.905 
20:30	75.3	75.3	77.7	54	57.5	0	0	---	0.00	29.909 
20:35	74.9	74.9	74.9	54	57.1	0	1	315	0.00	29.909 
20:40	74.6	74.6	74.6	55	57.3	0	0	---	0.00	29.909 
20:45	74.4	74.4	74.4	57	58.2	0	0	---	0.00	29.912 
20:50	73.9	73.9	73.9	57	57.7	0	0	---	0.00	29.912 
20:55	73.5	73.5	73.5	58	57.8	0	0	---	0.00	29.912 
21:00	73.2	73.2	73.2	59	58.0	0	0	---	0.00	29.917 
21:05	72.8	72.8	72.8	60	58.1	0	0	---	0.00	29.917 
21:10	72.5	72.5	72.5	61	58.3	0	0	---	0.00	29.917 
21:15	72.0	72.0	72.0	62	58.3	0	0	---	0.00	29.916 
21:20	71.6	71.6	71.6	62	57.9	0	0	---	0.00	29.916 
21:25	71.3	71.3	71.3	63	58.0	0	0	---	0.00	29.916 
21:30	71.1	71.1	71.1	64	58.3	0	0	---	0.00	29.921 
21:35	70.9	70.9	70.9	64	58.1	0	0	---	0.00	29.921 
21:40	70.9	70.9	70.9	65	58.5	0	0	---	0.00	29.921 
21:45	70.6	70.6	70.6	65	58.2	0	0	---	0.00	29.928 
21:50	70.3	70.3	70.3	66	58.4	0	0	---	0.00	29.928 
21:55	70.1	70.1	70.1	66	58.2	0	0	---	0.00	29.928 
22:00	69.9	69.9	69.9	66	58.0	0	0	---	0.00	29.935 
22:05	69.8	69.8	69.8	68	58.7	0	0	---	0.00	29.935 
22:10	69.4	69.4	69.4	68	58.4	0	0	---	0.00	29.935 
22:15	69.3	69.3	69.3	68	58.3	0	0	---	0.00	29.936 
22:20	68.9	68.9	68.9	68	57.9	0	0	---	0.00	29.936 
22:25	68.6	68.6	68.6	68	57.6	0	0	---	0.00	29.936 
22:30	68.4	68.4	68.4	69	57.8	0	0	---	0.00	29.941 
22:35	68.1	68.1	68.1	69	57.5	0	0	---	0.00	29.941 
22:40	67.8	67.8	67.8	70	57.6	0	0	---	0.00	29.941 
22:45	67.6	67.6	67.6	72	58.2	0	0	---	0.00	29.948 
22:50	67.3	67.3	67.3	72	58.0	0	0	---	0.00	29.948 
22:55	66.9	66.9	66.9	73	58.0	0	0	---	0.00	29.948 
23:00	66.6	66.6	66.6	74	58.0	0	0	---	0.00	29.950 
23:05	66.4	66.4	66.4	75	58.2	0	0	---	0.00	29.950 
23:10	66.3	66.3	66.3	75	58.1	0	0	---	0.00	29.950 
23:15	66.0	66.0	66.0	76	58.2	0	0	---	0.00	29.953 
23:20	65.8	65.8	65.8	76	58.0	0	0	---	0.00	29.953 
23:25	65.6	65.6	65.6	77	58.2	0	0	---	0.00	29.953 
23:30	65.3	65.3	65.3	77	57.9	0	0	---	0.00	29.956 
23:35	65.2	65.2	65.2	78	58.2	0	0	---	0.00	29.956 
23:40	65.0	65.0	65.0	79	58.3	0	0	---	0.00	29.956 
23:45	64.8	64.8	64.8	80	58.5	0	0	---	0.00	29.956 
23:50	64.7	64.7	64.7	81	58.7	0	0	---	0.00	29.956 
23:55	64.5	64.5	64.5	81	58.5	0	0	---	0.00	29.956 

CoCoRaHS
IN-AL-39
A2 Web Hosting
Creative Commons License
GoDaddy
search engine by freefind advanced

loaded 2018-11-17 06:33:15 • last modified 2010-11-18 10:43:29
Privacy PolicyDisclaimer
• wx.awcolley.com is powered by PmWiki v.2002016 •
• all content (unless otherwise noted) © 2018 A W Colley